createdAt,value
2023-01-20T00:02:09.370Z,65.26
2023-01-20T00:05:17.990Z,67.65
2023-01-20T00:08:24.502Z,66.68
2023-01-20T00:11:31.541Z,64.87
2023-01-20T00:14:38.025Z,64.62
2023-01-20T00:17:43.849Z,65.65
2023-01-20T00:20:53.044Z,63.76
2023-01-20T00:23:59.591Z,66.14
2023-01-20T00:27:06.231Z,65.86
2023-01-20T00:30:14.509Z,66.75
2023-01-20T00:33:21.073Z,66.30
2023-01-20T00:36:32.538Z,68.37
2023-01-20T00:39:39.170Z,67.77
2023-01-20T00:42:45.204Z,71.12
2023-01-20T00:45:51.917Z,71.27
2023-01-20T00:48:57.776Z,69.96
2023-01-20T00:52:07.177Z,73.39
2023-01-20T00:55:14.140Z,68.71
2023-01-20T00:58:21.192Z,71.90
2023-01-20T01:01:27.655Z,73.59
2023-01-20T01:04:34.344Z,76.02
2023-01-20T01:07:42.784Z,74.73
2023-01-20T01:10:49.430Z,69.01
2023-01-20T01:13:55.428Z,62.92
2023-01-20T01:17:02.155Z,59.11
2023-01-20T01:20:09.382Z,58.74
2023-01-20T01:23:18.639Z,58.09
2023-01-20T01:26:24.923Z,57.86
2023-01-20T01:29:31.401Z,57.98
2023-01-20T01:32:37.401Z,57.32
2023-01-20T01:35:44.697Z,61.25
2023-01-20T01:38:58.563Z,72.93
2023-01-20T01:42:05.886Z,115.41
2023-01-20T01:45:36.338Z,71.47
2023-01-20T01:48:48.358Z,74.45
2023-01-20T01:52:01.798Z,73.68
2023-01-20T01:55:13.686Z,98.57
2023-01-20T01:58:27.872Z,91.39
2023-01-20T02:01:39.971Z,88.13
2023-01-20T02:04:45.725Z,82.95
2023-01-20T02:07:53.392Z,88.84
2023-01-20T02:11:01.782Z,88.80
2023-01-20T02:14:10.542Z,88.22
2023-01-20T02:17:33.058Z,87.37
2023-01-20T02:21:32.240Z,83.00
2023-01-20T02:25:41.478Z,79.66
2023-01-20T02:29:39.026Z,79.61
2023-01-20T02:33:02.648Z,74.09
2023-01-20T02:36:14.722Z,73.51
2023-01-20T02:39:33.954Z,74.48
2023-01-20T02:42:48.725Z,70.14
2023-01-20T02:46:06.998Z,68.33
2023-01-20T02:49:24.141Z,65.53
2023-01-20T02:52:39.668Z,60.37
2023-01-20T02:55:51.359Z,63.78
2023-01-20T02:59:05.485Z,61.66
2023-01-20T03:02:20.792Z,59.77
2023-01-20T03:05:38.934Z,55.86
2023-01-20T03:08:45.447Z,55.52
2023-01-20T03:12:06.295Z,55.90
2023-01-20T03:15:14.616Z,55.69
2023-01-20T03:18:21.580Z,57.85
2023-01-20T03:21:30.988Z,56.39
2023-01-20T03:24:41.306Z,57.47
2023-01-20T03:27:47.213Z,54.74
2023-01-20T03:30:59.036Z,54.98
2023-01-20T03:34:13.641Z,54.54
2023-01-20T03:37:23.065Z,54.40
2023-01-20T03:40:40.451Z,54.07
2023-01-20T03:44:00.028Z,53.23
2023-01-20T03:47:21.308Z,54.79
2023-01-20T03:50:44.018Z,59.40
2023-01-20T03:54:04.416Z,66.83
2023-01-20T03:57:19.875Z,105.44
2023-01-20T04:00:31.295Z,88.27
2023-01-20T04:03:45.773Z,87.29
2023-01-20T04:06:55.201Z,99.50
2023-01-20T04:10:13.721Z,82.32
2023-01-20T04:13:19.956Z,89.57
2023-01-20T04:16:30.040Z,102.72
2023-01-20T04:19:35.846Z,105.56
2023-01-20T04:22:52.817Z,101.94
2023-01-20T04:26:01.449Z,99.30
2023-01-20T04:29:11.919Z,97.76
2023-01-20T04:32:18.747Z,99.41
2023-01-20T04:35:25.482Z,107.29
2023-01-20T04:38:31.301Z,98.57
2023-01-20T04:41:40.732Z,92.00
2023-01-20T04:44:46.490Z,81.26
2023-01-20T04:47:53.203Z,73.80
2023-01-20T04:50:59.172Z,71.72
2023-01-20T04:54:05.744Z,69.45
2023-01-20T04:57:15.483Z,67.84
2023-01-20T05:00:23.163Z,68.50
2023-01-20T05:03:28.950Z,66.16
2023-01-20T05:06:36.038Z,62.19
2023-01-20T05:09:42.254Z,60.90
2023-01-20T05:12:51.597Z,59.58
2023-01-20T05:15:57.656Z,58.93
2023-01-20T05:19:04.847Z,56.48
2023-01-20T05:22:10.671Z,57.55
2023-01-20T05:25:17.503Z,56.62
2023-01-20T05:28:26.415Z,58.52
2023-01-20T05:31:43.716Z,60.09
2023-01-20T05:34:50.146Z,59.22
2023-01-20T05:37:57.529Z,59.14
2023-01-20T05:41:04.624Z,59.53
2023-01-20T05:44:13.950Z,61.30
2023-01-20T05:47:20.447Z,64.59
2023-01-20T05:50:28.985Z,66.99
2023-01-20T05:53:34.861Z,66.34
2023-01-20T05:56:41.449Z,64.54
2023-01-20T05:59:51.567Z,64.12
2023-01-20T06:02:58.101Z,60.38
2023-01-20T06:06:05.259Z,59.92
2023-01-20T06:09:11.956Z,60.59
2023-01-20T06:12:17.802Z,60.22
2023-01-20T06:15:28.217Z,60.96
2023-01-20T06:18:34.515Z,57.88
2023-01-20T06:21:41.041Z,65.61
2023-01-20T06:24:46.914Z,70.96
2023-01-20T06:27:53.506Z,80.77
2023-01-20T06:31:09.742Z,81.53
2023-01-20T06:34:17.144Z,78.91
2023-01-20T06:37:23.427Z,75.50
2023-01-20T06:40:29.984Z,72.57
2023-01-20T06:43:40.230Z,71.31
2023-01-20T06:46:49.596Z,65.03
2023-01-20T06:49:55.443Z,62.16
2023-01-20T06:53:02.006Z,57.39
2023-01-20T06:56:08.767Z,62.65
2023-01-20T06:59:16.477Z,55.42
2023-01-20T07:02:25.092Z,56.59
2023-01-20T07:05:31.853Z,59.81
2023-01-20T07:08:37.637Z,61.89
2023-01-20T07:11:44.836Z,65.98
2023-01-20T07:14:50.614Z,65.86
2023-01-20T07:18:01.259Z,68.37
2023-01-20T07:21:07.676Z,69.54
2023-01-20T07:24:14.535Z,67.49
2023-01-20T07:27:20.340Z,61.60
2023-01-20T07:30:29.634Z,57.78
2023-01-20T07:33:39.587Z,56.97
2023-01-20T07:36:46.292Z,54.83
2023-01-20T07:39:52.010Z,51.02
2023-01-20T07:42:58.821Z,52.99
2023-01-20T07:46:07.901Z,74.51
2023-01-20T07:49:17.454Z,68.48
2023-01-20T07:52:23.292Z,63.15
2023-01-20T07:55:29.948Z,52.86
2023-01-20T07:58:36.934Z,52.32
2023-01-20T08:01:45.729Z,51.10
2023-01-20T08:04:54.327Z,50.47
2023-01-20T08:08:01.003Z,48.68
2023-01-20T08:11:08.920Z,47.89
2023-01-20T08:14:15.543Z,52.89
2023-01-20T08:17:26.868Z,57.26
2023-01-20T08:20:36.233Z,54.35
2023-01-20T08:23:42.080Z,54.89
2023-01-20T08:26:48.604Z,56.56
2023-01-20T08:29:57.869Z,56.97
2023-01-20T08:33:04.575Z,52.44
2023-01-20T08:36:17.877Z,71.72
2023-01-20T08:39:25.134Z,58.11
2023-01-20T08:42:30.985Z,53.65
2023-01-20T08:45:37.838Z,56.37
2023-01-20T08:48:46.223Z,57.04
2023-01-20T08:51:56.423Z,61.99
2023-01-20T08:55:02.370Z,67.40
2023-01-20T08:58:09.112Z,61.33
2023-01-20T09:01:18.015Z,56.76
2023-01-20T09:04:26.977Z,72.99
2023-01-20T09:07:36.219Z,74.40
2023-01-20T09:10:42.969Z,62.76
2023-01-20T09:13:49.760Z,57.53
2023-01-20T09:16:56.585Z,59.42
2023-01-20T09:20:02.373Z,62.47
2023-01-20T09:23:11.584Z,60.10
2023-01-20T09:26:34.324Z,57.30
2023-01-20T09:29:42.339Z,56.91
2023-01-20T09:32:48.352Z,60.80
2023-01-20T09:35:58.316Z,60.43
2023-01-20T09:39:19.428Z,57.71
2023-01-20T09:42:53.621Z,53.56
2023-01-20T09:46:11.501Z,58.30
2023-01-20T09:49:49.968Z,59.14
2023-01-20T09:53:15.560Z,61.88
2023-01-20T09:56:30.999Z,58.46
2023-01-20T09:59:47.864Z,65.01
2023-01-20T10:03:06.572Z,64.74
2023-01-20T10:06:25.019Z,64.66
2023-01-20T10:09:45.465Z,62.84
2023-01-20T10:13:06.991Z,63.21
2023-01-20T10:16:27.029Z,67.55
2023-01-20T10:19:48.268Z,70.72
2023-01-20T10:23:07.165Z,67.63
2023-01-20T10:26:23.616Z,69.79
2023-01-20T10:29:41.012Z,72.37
2023-01-20T10:33:00.272Z,69.37
2023-01-20T10:36:07.883Z,68.61
2023-01-20T10:39:31.354Z,65.46
2023-01-20T10:42:38.000Z,66.13
2023-01-20T10:46:12.467Z,67.78
2023-01-20T10:49:54.851Z,68.22
2023-01-20T10:53:27.030Z,115.02
2023-01-20T10:56:53.534Z,77.01
2023-01-20T11:00:08.203Z,77.90
2023-01-20T11:03:22.831Z,80.67
2023-01-20T11:06:30.678Z,82.07
2023-01-20T11:09:41.301Z,85.50
2023-01-20T11:12:53.017Z,79.39
2023-01-20T11:16:09.747Z,77.23
2023-01-20T11:19:18.266Z,75.01
2023-01-20T11:22:34.800Z,72.25
2023-01-20T11:25:42.307Z,71.52
2023-01-20T11:28:55.445Z,70.49
2023-01-20T11:35:28.641Z,68.51
2023-01-20T11:38:45.438Z,69.97
2023-01-20T11:41:51.940Z,70.24
2023-01-20T11:45:21.499Z,90.32
2023-01-20T11:48:28.557Z,74.49
2023-01-20T11:51:46.828Z,65.74
2023-01-20T11:55:13.243Z,54.87
2023-01-20T11:58:24.020Z,77.32
2023-01-20T12:01:34.047Z,63.05
2023-01-20T12:05:12.934Z,78.23
2023-01-20T12:08:36.519Z,60.77
2023-01-20T12:11:55.061Z,47.36
2023-01-20T12:15:08.920Z,43.37
2023-01-20T12:18:25.196Z,39.20
2023-01-20T12:21:44.458Z,38.13
2023-01-20T12:25:11.783Z,40.52
2023-01-20T12:28:31.014Z,36.93
2023-01-20T12:31:37.532Z,35.36
2023-01-20T12:34:44.393Z,33.64
2023-01-20T12:37:59.492Z,32.03
2023-01-20T12:41:32.400Z,31.68
2023-01-20T12:44:52.623Z,30.02
2023-01-20T12:48:26.231Z,29.70
2023-01-20T12:52:03.998Z,29.84
2023-01-20T12:55:33.791Z,27.96
2023-01-20T12:59:00.829Z,27.70
2023-01-20T13:02:53.482Z,28.24
2023-01-20T13:06:27.872Z,27.86
2023-01-20T13:10:02.827Z,29.44
2023-01-20T13:13:55.923Z,29.84
2023-01-20T13:17:20.802Z,30.43
2023-01-20T13:20:33.067Z,29.21
2023-01-20T13:23:42.437Z,31.18
2023-01-20T13:26:53.065Z,31.12
2023-01-20T13:30:04.698Z,32.05
2023-01-20T13:33:21.218Z,32.64
2023-01-20T13:36:28.664Z,33.21
2023-01-20T13:39:49.432Z,35.33
2023-01-20T13:42:56.320Z,36.69
2023-01-20T13:46:47.354Z,38.91
2023-01-20T13:50:20.885Z,40.30
2023-01-20T13:53:31.926Z,63.84
2023-01-20T13:56:50.375Z,66.91
2023-01-20T13:59:56.539Z,40.32
2023-01-20T14:03:25.841Z,40.24
2023-01-20T14:06:36.308Z,42.89
2023-01-20T14:09:43.464Z,49.09
2023-01-20T14:12:50.304Z,52.63
2023-01-20T14:15:59.149Z,56.30
2023-01-20T14:19:22.138Z,55.80
2023-01-20T14:22:34.451Z,68.11
2023-01-20T14:25:40.226Z,55.99
2023-01-20T14:28:54.085Z,54.17
2023-01-20T14:32:00.056Z,61.01
2023-01-20T14:35:21.259Z,47.87
2023-01-20T14:38:29.693Z,50.54
2023-01-20T14:41:49.051Z,72.11
2023-01-20T14:45:01.414Z,52.91
2023-01-20T14:48:09.817Z,48.51
2023-01-20T14:51:17.411Z,47.81
2023-01-20T14:54:42.040Z,49.44
2023-01-20T14:57:48.854Z,48.94
2023-01-20T15:01:04.673Z,48.99
2023-01-20T15:04:13.131Z,48.35
2023-01-20T15:07:30.281Z,49.96
2023-01-20T15:10:38.798Z,49.07
2023-01-20T15:14:14.054Z,53.11
2023-01-20T15:17:20.717Z,60.76
2023-01-20T15:20:32.267Z,60.74
2023-01-20T15:23:41.522Z,52.12
2023-01-20T15:26:54.056Z,54.78
2023-01-20T15:30:19.816Z,48.12
2023-01-20T15:33:28.652Z,57.90
2023-01-20T15:36:37.139Z,49.72
2023-01-20T15:39:43.735Z,41.85
2023-01-20T15:42:53.930Z,43.67
2023-01-20T15:46:00.609Z,43.48
2023-01-20T15:49:07.080Z,47.35
2023-01-20T15:52:15.645Z,50.62
2023-01-20T15:55:22.841Z,43.24
2023-01-20T15:58:36.041Z,42.91
2023-01-20T16:01:41.892Z,40.49
2023-01-20T16:04:48.762Z,41.69
2023-01-20T16:07:56.431Z,43.05
2023-01-20T16:11:05.605Z,40.59
2023-01-20T16:14:16.455Z,45.37
2023-01-20T16:17:25.138Z,41.76
2023-01-20T16:20:31.560Z,40.73
2023-01-20T16:23:38.274Z,43.63
2023-01-20T16:26:49.692Z,45.03
2023-01-20T16:29:58.971Z,74.73
2023-01-20T16:33:04.929Z,76.93
2023-01-20T16:36:17.896Z,71.28
2023-01-20T16:39:23.856Z,55.23
2023-01-20T16:42:30.498Z,56.09
2023-01-20T16:45:40.342Z,53.48
2023-01-20T16:48:49.553Z,46.21
2023-01-20T16:51:55.253Z,47.37
2023-01-20T16:55:04.389Z,50.48
2023-01-20T16:58:10.329Z,47.44
2023-01-20T17:01:22.274Z,46.74
2023-01-20T17:04:29.646Z,47.58
2023-01-20T17:07:36.920Z,44.29
2023-01-20T17:10:42.815Z,47.15
2023-01-20T17:13:49.855Z,44.13
2023-01-20T17:17:01.070Z,43.03
2023-01-20T17:20:11.943Z,42.22
2023-01-20T17:23:17.744Z,42.69
2023-01-20T17:26:28.059Z,44.46
2023-01-20T17:29:33.850Z,47.63
2023-01-20T17:32:43.075Z,44.82
2023-01-20T17:35:59.533Z,43.19
2023-01-20T17:39:07.801Z,46.03
2023-01-20T17:42:17.563Z,45.01
2023-01-20T17:45:24.550Z,45.13
2023-01-20T17:48:32.973Z,48.14
2023-01-20T17:51:40.922Z,44.02
2023-01-20T17:54:46.793Z,46.08
2023-01-20T17:57:54.139Z,46.69
2023-01-20T18:01:00.002Z,49.37
2023-01-20T18:04:10.582Z,49.93
2023-01-20T18:07:16.386Z,48.77
2023-01-20T18:10:23.032Z,50.93
2023-01-20T18:13:31.661Z,51.49
2023-01-20T18:16:41.966Z,54.21
2023-01-20T18:19:51.356Z,55.08
2023-01-20T18:23:00.595Z,56.24
2023-01-20T18:26:06.729Z,57.64
2023-01-20T18:29:18.914Z,52.08
2023-01-20T18:32:26.450Z,89.21
2023-01-20T18:35:36.111Z,53.64
2023-01-20T18:38:43.634Z,50.83
2023-01-20T18:41:51.836Z,51.41
2023-01-20T18:45:00.567Z,54.40
2023-01-20T18:48:10.153Z,58.67
2023-01-20T18:51:21.815Z,53.71
2023-01-20T18:54:32.696Z,59.20
2023-01-20T18:57:38.748Z,74.49
2023-01-20T19:00:46.236Z,60.39
2023-01-20T19:03:53.571Z,66.18
2023-01-20T19:07:03.134Z,64.61
2023-01-20T19:10:10.192Z,93.17
2023-01-20T19:13:16.901Z,72.93
2023-01-20T19:16:25.658Z,69.54
2023-01-20T19:19:32.673Z,84.46
2023-01-20T19:22:41.717Z,69.84
2023-01-20T19:25:49.006Z,64.26
2023-01-20T19:29:02.667Z,68.75
2023-01-20T19:32:09.534Z,74.26
2023-01-20T19:35:15.447Z,66.65
2023-01-20T19:38:25.854Z,67.48
2023-01-20T19:41:36.302Z,69.14
2023-01-20T19:44:43.307Z,58.95
2023-01-20T19:47:49.176Z,56.11
2023-01-20T19:50:55.985Z,69.80
2023-01-20T19:54:08.239Z,59.34
2023-01-20T19:57:15.518Z,60.26
2023-01-20T20:00:22.632Z,87.49
2023-01-20T20:03:31.202Z,52.48
2023-01-20T20:06:44.154Z,42.06
2023-01-20T20:09:54.493Z,46.04
2023-01-20T20:13:00.366Z,48.56
2023-01-20T20:16:08.928Z,40.06
2023-01-20T20:19:18.894Z,43.08
2023-01-20T20:22:25.764Z,44.25
2023-01-20T20:25:34.438Z,40.43
2023-01-20T20:28:41.652Z,38.70
2023-01-20T20:31:48.931Z,42.55
2023-01-20T20:34:56.040Z,41.45
2023-01-20T20:38:01.776Z,40.17
2023-01-20T20:41:13.436Z,40.33
2023-01-20T20:44:19.369Z,40.68
2023-01-20T20:47:27.250Z,42.03
2023-01-20T20:50:36.710Z,39.93
2023-01-20T20:53:44.499Z,37.21
2023-01-20T20:56:55.006Z,37.09
2023-01-20T21:00:01.919Z,41.65
2023-01-20T21:03:11.322Z,38.46
2023-01-20T21:06:22.872Z,45.94
2023-01-20T21:09:29.276Z,34.52
2023-01-20T21:12:38.548Z,32.90
2023-01-20T21:15:44.433Z,34.74
2023-01-20T21:18:52.130Z,32.27
2023-01-20T21:21:58.288Z,33.66
2023-01-20T21:25:05.202Z,33.30
2023-01-20T21:28:15.193Z,34.89
2023-01-20T21:31:26.818Z,34.50
2023-01-20T21:34:34.017Z,34.30
2023-01-20T21:37:43.601Z,34.20
2023-01-20T21:40:59.968Z,35.58
2023-01-20T21:44:26.351Z,33.66
2023-01-20T21:47:32.077Z,35.82
2023-01-20T21:50:51.182Z,36.44
2023-01-20T21:53:57.240Z,35.23
2023-01-20T21:57:05.210Z,34.65
2023-01-20T22:00:16.474Z,51.90
2023-01-20T22:03:26.395Z,42.17
2023-01-20T22:06:32.906Z,34.90
2023-01-20T22:09:39.741Z,35.98
2023-01-20T22:12:47.727Z,34.95
2023-01-20T22:15:57.049Z,34.36
2023-01-20T22:19:02.834Z,43.18
2023-01-20T22:22:10.469Z,37.54
2023-01-20T22:25:16.568Z,32.25
2023-01-20T22:28:24.580Z,31.06
2023-01-20T22:31:34.463Z,33.63
2023-01-20T22:34:41.367Z,31.66
2023-01-20T22:37:48.405Z,31.26
2023-01-20T22:40:56.121Z,31.18
2023-01-20T22:44:02.554Z,31.02
2023-01-20T22:47:12.608Z,29.08
2023-01-20T22:50:18.973Z,58.10
2023-01-20T22:53:26.033Z,40.27
2023-01-20T22:56:34.851Z,29.49
2023-01-20T22:59:41.443Z,29.84
2023-01-20T23:02:49.927Z,28.79
2023-01-20T23:06:00.137Z,28.95
2023-01-20T23:09:09.447Z,28.41
2023-01-20T23:12:16.158Z,27.85
2023-01-20T23:15:21.950Z,28.57
2023-01-20T23:18:31.475Z,28.48
2023-01-20T23:21:37.952Z,28.50
2023-01-20T23:24:44.637Z,29.82
2023-01-20T23:27:50.436Z,29.29
2023-01-20T23:31:04.300Z,26.11
2023-01-20T23:34:12.896Z,25.53
2023-01-20T23:37:19.931Z,21.40
2023-01-20T23:40:26.246Z,20.51
2023-01-20T23:43:33.170Z,20.56
2023-01-20T23:46:39.429Z,20.46
2023-01-20T23:49:48.563Z,19.00
2023-01-20T23:52:54.427Z,19.93
2023-01-20T23:56:04.709Z,20.73
2023-01-20T23:59:10.516Z,22.63
